createdAt,value
2022-12-26T00:01:08.638Z,69.95
2022-12-26T00:04:48.772Z,70.57
2022-12-26T00:07:41.715Z,73.89
2022-12-26T00:10:48.110Z,72.32
2022-12-26T00:13:58.835Z,71.91
2022-12-26T00:17:07.553Z,71.73
2022-12-26T00:20:15.230Z,73.45
2022-12-26T00:23:21.237Z,75.58
2022-12-26T00:26:31.832Z,78.08
2022-12-26T00:29:37.872Z,80.18
2022-12-26T00:32:47.681Z,82.13
2022-12-26T00:35:53.680Z,79.44
2022-12-26T00:39:04.073Z,78.47
2022-12-26T00:42:10.186Z,77.04
2022-12-26T00:45:17.084Z,80.45
2022-12-26T00:48:25.977Z,84.43
2022-12-26T00:51:33.929Z,87.12
2022-12-26T00:54:40.066Z,87.80
2022-12-26T00:57:46.970Z,90.18
2022-12-26T01:00:54.412Z,89.99
2022-12-26T01:04:05.071Z,88.99
2022-12-26T01:07:11.095Z,85.80
2022-12-26T01:10:18.251Z,85.56
2022-12-26T01:13:24.513Z,84.83
2022-12-26T01:16:31.395Z,83.57
2022-12-26T01:19:40.898Z,84.83
2022-12-26T01:22:47.724Z,81.91
2022-12-26T01:26:17.200Z,81.39
2022-12-26T01:29:20.626Z,80.08
2022-12-26T01:32:27.299Z,81.39
2022-12-26T01:35:36.947Z,92.49
2022-12-26T01:38:42.973Z,83.75
2022-12-26T01:41:50.744Z,81.83
2022-12-26T01:45:08.089Z,87.78
2022-12-26T01:48:26.229Z,81.21
2022-12-26T01:51:42.204Z,85.28
2022-12-26T01:54:56.002Z,85.22
2022-12-26T01:58:10.310Z,80.99
2022-12-26T02:01:18.366Z,84.81
2022-12-26T02:04:46.033Z,89.94
2022-12-26T02:07:55.627Z,95.43
2022-12-26T02:11:13.839Z,90.68
2022-12-26T02:14:20.960Z,95.28
2022-12-26T02:17:28.547Z,93.28
2022-12-26T02:20:54.274Z,93.63
2022-12-26T02:25:04.226Z,88.96
2022-12-26T02:28:52.413Z,85.33
2022-12-26T02:32:18.178Z,85.13
2022-12-26T02:35:50.243Z,88.45
2022-12-26T02:39:43.800Z,89.25
2022-12-26T02:43:01.156Z,89.87
2022-12-26T02:46:37.067Z,88.39
2022-12-26T02:50:19.637Z,86.97
2022-12-26T02:53:55.305Z,77.29
2022-12-26T02:57:23.247Z,75.76
2022-12-26T03:00:48.821Z,76.75
2022-12-26T03:04:14.335Z,76.42
2022-12-26T03:07:44.183Z,78.24
2022-12-26T03:11:08.735Z,79.31
2022-12-26T03:14:25.549Z,78.06
2022-12-26T03:17:37.415Z,82.99
2022-12-26T03:20:43.854Z,79.03
2022-12-26T03:23:57.771Z,75.92
2022-12-26T03:27:01.919Z,81.45
2022-12-26T03:30:23.569Z,85.80
2022-12-26T03:33:47.294Z,91.23
2022-12-26T03:37:47.820Z,89.18
2022-12-26T03:41:27.562Z,87.69
2022-12-26T03:45:03.142Z,88.25
2022-12-26T03:48:36.601Z,85.15
2022-12-26T03:52:06.991Z,84.32
2022-12-26T03:55:36.998Z,70.49
2022-12-26T03:59:13.408Z,62.21
2022-12-26T04:02:36.961Z,51.66
2022-12-26T04:06:03.481Z,47.37
2022-12-26T04:09:30.560Z,36.73
2022-12-26T04:12:55.568Z,33.99
2022-12-26T04:16:31.020Z,30.81
2022-12-26T04:20:01.471Z,29.91
2022-12-26T04:23:30.669Z,30.24
2022-12-26T04:27:00.235Z,30.93
2022-12-26T04:30:21.689Z,32.00
2022-12-26T04:33:59.946Z,32.58
2022-12-26T04:37:33.592Z,30.68
2022-12-26T04:41:03.446Z,31.72
2022-12-26T04:44:12.791Z,26.73
2022-12-26T04:47:20.340Z,21.55
2022-12-26T04:50:26.371Z,23.53
2022-12-26T04:53:33.192Z,23.11
2022-12-26T04:56:39.300Z,22.45
2022-12-26T04:59:46.083Z,21.81
2022-12-26T05:03:04.522Z,21.62
2022-12-26T05:06:27.070Z,21.17
2022-12-26T05:09:39.946Z,24.42
2022-12-26T05:12:46.813Z,23.92
2022-12-26T05:16:05.230Z,21.12
2022-12-26T05:19:28.407Z,19.33
2022-12-26T05:22:55.488Z,19.82
2022-12-26T05:26:14.825Z,20.05
2022-12-26T05:29:20.851Z,19.45
2022-12-26T05:32:40.126Z,20.17
2022-12-26T05:35:46.496Z,21.23
2022-12-26T05:38:56.400Z,23.20
2022-12-26T05:42:02.462Z,23.50
2022-12-26T05:45:10.960Z,22.01
2022-12-26T05:48:17.193Z,23.30
2022-12-26T05:51:24.511Z,24.73
2022-12-26T05:54:33.100Z,24.96
2022-12-26T05:57:39.900Z,22.30
2022-12-26T06:00:45.978Z,19.31
2022-12-26T06:03:56.148Z,18.66
2022-12-26T06:07:02.320Z,18.61
2022-12-26T06:10:13.421Z,18.20
2022-12-26T06:13:19.446Z,18.09
2022-12-26T06:16:27.191Z,18.23
2022-12-26T06:19:33.241Z,17.38
2022-12-26T06:22:40.429Z,17.89
2022-12-26T06:25:56.755Z,17.77
2022-12-26T06:29:03.727Z,18.00
2022-12-26T06:32:09.924Z,20.60
2022-12-26T06:35:16.873Z,21.17
2022-12-26T06:38:22.864Z,21.39
2022-12-26T06:41:32.309Z,19.14
2022-12-26T06:44:38.356Z,17.35
2022-12-26T06:47:45.271Z,16.70
2022-12-26T06:50:51.325Z,17.28
2022-12-26T06:53:58.770Z,18.62
2022-12-26T06:57:07.479Z,21.05
2022-12-26T07:00:18.315Z,19.31
2022-12-26T07:03:26.581Z,18.79
2022-12-26T07:06:36.434Z,20.80
2022-12-26T07:09:42.503Z,20.50
2022-12-26T07:12:52.780Z,19.98
2022-12-26T07:16:02.513Z,20.50
2022-12-26T07:19:10.973Z,20.58
2022-12-26T07:22:17.080Z,20.28
2022-12-26T07:25:24.014Z,20.27
2022-12-26T07:28:33.245Z,23.80
2022-12-26T07:31:40.212Z,27.00
2022-12-26T07:34:46.536Z,29.43
2022-12-26T07:37:53.498Z,29.51
2022-12-26T07:41:20.558Z,27.87
2022-12-26T07:44:33.331Z,28.31
2022-12-26T07:47:39.556Z,29.38
2022-12-26T07:50:49.588Z,26.87
2022-12-26T07:53:55.724Z,30.33
2022-12-26T07:57:38.279Z,27.69
2022-12-26T08:00:31.300Z,27.87
2022-12-26T08:03:38.920Z,28.58
2022-12-26T08:06:45.183Z,31.22
2022-12-26T08:09:52.288Z,29.11
2022-12-26T08:12:58.375Z,30.54
2022-12-26T08:16:14.178Z,28.52
2022-12-26T08:19:20.374Z,32.14
2022-12-26T08:22:27.287Z,28.43
2022-12-26T08:25:33.406Z,23.61
2022-12-26T08:28:40.932Z,24.01
2022-12-26T08:31:50.001Z,25.12
2022-12-26T08:34:57.006Z,28.01
2022-12-26T08:38:05.432Z,28.50
2022-12-26T08:41:13.053Z,31.56
2022-12-26T08:44:27.998Z,32.33
2022-12-26T08:47:38.322Z,33.63
2022-12-26T08:50:44.585Z,27.58
2022-12-26T08:53:53.265Z,26.30
2022-12-26T08:57:00.039Z,27.01
2022-12-26T09:00:12.157Z,28.41
2022-12-26T09:03:21.424Z,26.36
2022-12-26T09:06:29.591Z,27.90
2022-12-26T09:09:35.941Z,26.09
2022-12-26T09:12:43.435Z,28.34
2022-12-26T09:15:50.519Z,29.42
2022-12-26T09:19:03.274Z,32.59
2022-12-26T09:22:21.926Z,25.42
2022-12-26T09:25:30.259Z,24.56
2022-12-26T09:28:37.635Z,23.82
2022-12-26T09:31:44.545Z,25.60
2022-12-26T09:34:57.172Z,25.39
2022-12-26T09:38:05.630Z,24.80
2022-12-26T09:41:50.826Z,26.43
2022-12-26T09:45:12.324Z,25.02
2022-12-26T09:48:30.207Z,24.46
2022-12-26T09:51:46.141Z,27.32
2022-12-26T09:54:59.461Z,33.05
2022-12-26T09:58:22.051Z,29.16
2022-12-26T10:01:37.407Z,28.69
2022-12-26T10:04:44.520Z,29.87
2022-12-26T10:08:02.650Z,27.66
2022-12-26T10:11:25.265Z,28.14
2022-12-26T10:14:49.374Z,33.82
2022-12-26T10:18:17.484Z,32.38
2022-12-26T10:21:45.204Z,33.97
2022-12-26T10:24:55.953Z,35.00
2022-12-26T10:28:07.244Z,32.98
2022-12-26T10:31:24.536Z,32.59
2022-12-26T10:34:38.643Z,38.59
2022-12-26T10:37:47.864Z,35.24
2022-12-26T10:41:02.626Z,35.67
2022-12-26T10:44:12.034Z,35.55
2022-12-26T10:47:30.620Z,34.93
2022-12-26T10:50:42.555Z,33.34
2022-12-26T10:53:54.433Z,30.16
2022-12-26T10:57:05.985Z,30.56
2022-12-26T11:00:22.768Z,29.65
2022-12-26T11:03:29.614Z,29.34
2022-12-26T11:06:43.415Z,24.85
2022-12-26T11:09:58.103Z,24.66
2022-12-26T11:13:22.087Z,24.46
2022-12-26T11:16:34.690Z,25.18
2022-12-26T11:19:44.645Z,24.55
2022-12-26T11:22:52.008Z,22.54
2022-12-26T11:26:01.187Z,24.53
2022-12-26T11:29:18.471Z,22.78
2022-12-26T11:32:24.820Z,23.06
2022-12-26T11:35:37.375Z,23.67
2022-12-26T11:38:57.712Z,22.42
2022-12-26T11:42:13.287Z,23.64
2022-12-26T11:45:34.012Z,23.19
2022-12-26T11:48:44.297Z,23.95
2022-12-26T11:51:59.297Z,23.01
2022-12-26T11:55:30.985Z,21.93
2022-12-26T11:58:39.100Z,21.18
2022-12-26T12:01:49.267Z,20.39
2022-12-26T12:05:03.814Z,20.54
2022-12-26T12:08:40.499Z,20.61
2022-12-26T12:12:01.536Z,20.82
2022-12-26T12:15:23.409Z,20.88
2022-12-26T12:18:52.723Z,21.51
2022-12-26T12:22:40.054Z,22.42
2022-12-26T12:26:10.734Z,19.77
2022-12-26T12:29:41.131Z,20.15
2022-12-26T12:33:18.350Z,20.41
2022-12-26T12:36:43.087Z,20.24
2022-12-26T12:40:06.160Z,21.89
2022-12-26T12:43:28.148Z,20.80
2022-12-26T12:46:49.594Z,20.72
2022-12-26T12:50:12.007Z,19.69
2022-12-26T12:53:49.310Z,20.60
2022-12-26T12:57:11.858Z,21.25
2022-12-26T13:00:23.861Z,20.89
2022-12-26T13:03:43.056Z,22.67
2022-12-26T13:06:57.675Z,24.35
2022-12-26T13:10:19.227Z,21.30
2022-12-26T13:13:34.344Z,28.18
2022-12-26T13:16:48.437Z,24.35
2022-12-26T13:20:05.366Z,22.38
2022-12-26T13:23:48.507Z,23.30
2022-12-26T13:27:07.612Z,21.86
2022-12-26T13:30:20.140Z,21.73
2022-12-26T13:33:27.422Z,19.95
2022-12-26T13:36:43.949Z,20.75
2022-12-26T13:39:50.436Z,18.81
2022-12-26T13:43:24.883Z,18.61
2022-12-26T13:46:57.482Z,21.82
2022-12-26T13:50:55.627Z,20.72
2022-12-26T13:54:14.043Z,22.45
2022-12-26T13:57:44.415Z,23.71
2022-12-26T14:01:01.279Z,23.50
2022-12-26T14:04:42.249Z,22.06
2022-12-26T14:08:02.345Z,21.37
2022-12-26T14:11:40.487Z,20.34
2022-12-26T14:15:22.276Z,22.39
2022-12-26T14:18:49.777Z,27.86
2022-12-26T14:22:12.478Z,24.21
2022-12-26T14:25:33.093Z,21.45
2022-12-26T14:29:06.382Z,20.64
2022-12-26T14:32:36.964Z,22.21
2022-12-26T14:36:08.118Z,22.65
2022-12-26T14:39:38.465Z,24.00
2022-12-26T14:43:21.312Z,24.13
2022-12-26T14:46:59.913Z,25.76
2022-12-26T14:50:40.688Z,24.25
2022-12-26T14:54:51.352Z,25.51
2022-12-26T14:57:58.839Z,26.58
2022-12-26T15:01:52.330Z,26.98
2022-12-26T15:05:17.417Z,26.35
2022-12-26T15:09:05.571Z,26.33
2022-12-26T15:12:59.419Z,25.27
2022-12-26T15:16:29.221Z,24.21
2022-12-26T15:20:21.684Z,22.08
2022-12-26T15:24:52.812Z,19.51
2022-12-26T15:28:41.095Z,22.66
2022-12-26T15:32:06.604Z,28.69
2022-12-26T15:35:24.750Z,32.85
2022-12-26T15:38:49.414Z,38.02
2022-12-26T15:42:22.101Z,33.17
2022-12-26T15:45:49.463Z,28.08
2022-12-26T15:49:25.294Z,22.94
2022-12-26T15:52:54.362Z,23.05
2022-12-26T15:56:44.721Z,20.43
2022-12-26T16:00:18.239Z,22.81
2022-12-26T16:03:43.419Z,21.38
2022-12-26T16:07:11.275Z,21.24
2022-12-26T16:10:34.088Z,24.75
2022-12-26T16:13:54.924Z,25.32
2022-12-26T16:17:24.690Z,24.35
2022-12-26T16:20:48.441Z,24.91
2022-12-26T16:23:57.749Z,23.65
2022-12-26T16:27:10.403Z,24.05
2022-12-26T16:30:22.903Z,26.06
2022-12-26T16:33:35.818Z,29.59
2022-12-26T16:36:42.218Z,33.88
2022-12-26T16:40:07.295Z,27.25
2022-12-26T16:43:34.731Z,29.90
2022-12-26T16:46:42.435Z,25.70
2022-12-26T16:49:52.326Z,44.14
2022-12-26T16:53:14.972Z,36.66
2022-12-26T16:56:31.994Z,22.33
2022-12-26T16:59:53.001Z,20.55
2022-12-26T17:03:04.229Z,21.52
2022-12-26T17:06:20.996Z,21.11
2022-12-26T17:09:32.211Z,21.57
2022-12-26T17:12:42.840Z,21.88
2022-12-26T17:15:58.343Z,22.20
2022-12-26T17:19:22.413Z,21.09
2022-12-26T17:22:36.725Z,24.66
2022-12-26T17:25:50.448Z,24.03
2022-12-26T17:28:57.303Z,26.95
2022-12-26T17:32:08.716Z,26.56
2022-12-26T17:35:22.420Z,27.56
2022-12-26T17:38:33.267Z,26.87
2022-12-26T17:41:39.740Z,27.54
2022-12-26T17:44:49.216Z,25.24
2022-12-26T17:47:58.899Z,25.07
2022-12-26T17:51:14.144Z,24.52
2022-12-26T17:54:23.092Z,25.91
2022-12-26T17:57:32.382Z,29.93
2022-12-26T18:00:38.711Z,27.74
2022-12-26T18:03:46.596Z,29.09
2022-12-26T18:06:52.906Z,29.43
2022-12-26T18:10:03.036Z,29.11
2022-12-26T18:13:18.430Z,29.58
2022-12-26T18:16:28.391Z,28.89
2022-12-26T18:19:36.637Z,28.43
2022-12-26T18:22:43.623Z,27.83
2022-12-26T18:25:54.774Z,28.36
2022-12-26T18:29:02.185Z,27.68
2022-12-26T18:32:26.634Z,28.81
2022-12-26T18:35:34.420Z,26.03
2022-12-26T18:38:40.519Z,27.17
2022-12-26T18:41:50.852Z,29.43
2022-12-26T18:44:57.389Z,29.26
2022-12-26T18:48:05.558Z,29.29
2022-12-26T18:51:11.878Z,29.71
2022-12-26T18:54:18.854Z,28.65
2022-12-26T18:57:27.587Z,27.01
2022-12-26T19:00:36.291Z,28.01
2022-12-26T19:03:42.491Z,29.18
2022-12-26T19:06:49.609Z,28.73
2022-12-26T19:09:59.616Z,28.43
2022-12-26T19:13:09.334Z,29.75
2022-12-26T19:16:15.828Z,30.95
2022-12-26T19:19:27.240Z,27.69
2022-12-26T19:22:33.667Z,27.44
2022-12-26T19:25:41.132Z,29.75
2022-12-26T19:28:55.204Z,28.38
2022-12-26T19:32:02.383Z,28.17
2022-12-26T19:35:10.661Z,27.61
2022-12-26T19:38:17.605Z,29.58
2022-12-26T19:41:24.747Z,29.52
2022-12-26T19:44:34.428Z,30.15
2022-12-26T19:47:40.780Z,30.21
2022-12-26T19:50:47.928Z,30.12
2022-12-26T19:53:54.355Z,30.77
2022-12-26T19:57:01.474Z,29.18
2022-12-26T20:00:13.623Z,30.44
2022-12-26T20:03:20.988Z,30.54
2022-12-26T20:06:30.345Z,29.95
2022-12-26T20:09:37.578Z,29.37
2022-12-26T20:12:44.067Z,28.86
2022-12-26T20:15:53.772Z,28.32
2022-12-26T20:19:00.125Z,27.31
2022-12-26T20:22:08.317Z,29.23
2022-12-26T20:25:14.873Z,30.20
2022-12-26T20:28:22.300Z,30.84
2022-12-26T20:31:33.106Z,27.86
2022-12-26T20:34:40.363Z,29.53
2022-12-26T20:37:46.479Z,30.54
2022-12-26T20:40:53.459Z,33.29
2022-12-26T20:44:00.193Z,35.41
2022-12-26T20:47:09.795Z,40.71
2022-12-26T20:50:17.706Z,34.71
2022-12-26T20:53:24.680Z,35.41
2022-12-26T20:56:30.935Z,34.00
2022-12-26T20:59:38.027Z,30.76
2022-12-26T21:02:46.933Z,35.78
2022-12-26T21:05:54.765Z,34.74
2022-12-26T21:09:02.015Z,33.64
2022-12-26T21:12:09.730Z,30.75
2022-12-26T21:15:16.019Z,29.47
2022-12-26T21:18:25.560Z,27.91
2022-12-26T21:21:35.565Z,27.70
2022-12-26T21:24:42.483Z,28.06
2022-12-26T21:27:49.686Z,28.17
2022-12-26T21:30:57.375Z,28.30
2022-12-26T21:34:08.927Z,28.27
2022-12-26T21:37:28.149Z,27.00
2022-12-26T21:40:34.314Z,27.70
2022-12-26T21:43:41.590Z,28.16
2022-12-26T21:46:47.794Z,28.97
2022-12-26T21:49:57.338Z,30.24
2022-12-26T21:53:04.422Z,30.53
2022-12-26T21:56:13.975Z,29.69
2022-12-26T21:59:32.535Z,29.55
2022-12-26T22:02:54.504Z,29.17
2022-12-26T22:06:03.417Z,26.58
2022-12-26T22:09:12.129Z,26.59
2022-12-26T22:12:30.880Z,25.88
2022-12-26T22:15:50.410Z,26.72
2022-12-26T22:18:58.382Z,26.66
2022-12-26T22:22:07.934Z,28.54
2022-12-26T22:25:14.104Z,28.28
2022-12-26T22:28:23.447Z,28.40
2022-12-26T22:31:33.877Z,28.48
2022-12-26T22:34:40.867Z,30.67
2022-12-26T22:37:49.566Z,37.10
2022-12-26T22:40:59.161Z,35.30
2022-12-26T22:44:05.460Z,31.92
2022-12-26T22:47:12.366Z,27.23
2022-12-26T22:50:19.645Z,28.40
2022-12-26T22:53:32.742Z,27.97
2022-12-26T22:56:38.746Z,27.22
2022-12-26T23:03:12.350Z,26.64
2022-12-26T23:06:26.576Z,25.92
2022-12-26T23:09:36.134Z,23.83
2022-12-26T23:12:46.652Z,22.71
2022-12-26T23:16:03.437Z,22.38
2022-12-26T23:19:33.802Z,21.16
2022-12-26T23:22:40.679Z,21.09
2022-12-26T23:25:50.053Z,21.60
2022-12-26T23:29:08.617Z,23.21
2022-12-26T23:32:15.765Z,23.69
2022-12-26T23:35:24.246Z,23.19
2022-12-26T23:38:31.467Z,23.72
2022-12-26T23:41:40.153Z,23.31
2022-12-26T23:44:47.143Z,23.30
2022-12-26T23:47:53.363Z,23.29
2022-12-26T23:51:09.295Z,23.19
2022-12-26T23:54:15.406Z,21.83
2022-12-26T23:57:25.019Z,21.22
